sensor_id;sensor_type;location;lat;lon;timestamp;P1;durP1;ratioP1;P2;durP2;ratioP2
18383;SDS011;9318;48.644;9.456;2022-11-20T00:01:27;7.77;;;3.87;;
18383;SDS011;9318;48.644;9.456;2022-11-20T00:03:55;4.97;;;3.83;;
18383;SDS011;9318;48.644;9.456;2022-11-20T00:06:24;8.20;;;4.10;;
18383;SDS011;9318;48.644;9.456;2022-11-20T00:08:53;8.53;;;4.27;;
18383;SDS011;9318;48.644;9.456;2022-11-20T00:11:22;7.53;;;4.10;;
18383;SDS011;9318;48.644;9.456;2022-11-20T00:13:52;6.00;;;3.83;;
18383;SDS011;9318;48.644;9.456;2022-11-20T00:16:23;6.67;;;4.00;;
18383;SDS011;9318;48.644;9.456;2022-11-20T00:18:51;5.97;;;3.67;;
18383;SDS011;9318;48.644;9.456;2022-11-20T00:21:19;11.10;;;4.20;;
18383;SDS011;9318;48.644;9.456;2022-11-20T00:23:48;6.33;;;3.70;;
18383;SDS011;9318;48.644;9.456;2022-11-20T00:26:17;5.40;;;3.77;;
18383;SDS011;9318;48.644;9.456;2022-11-20T00:28:49;5.47;;;3.90;;
18383;SDS011;9318;48.644;9.456;2022-11-20T00:31:18;6.67;;;3.60;;
18383;SDS011;9318;48.644;9.456;2022-11-20T00:33:46;6.07;;;3.90;;
18383;SDS011;9318;48.644;9.456;2022-11-20T00:36:14;6.27;;;3.80;;
18383;SDS011;9318;48.644;9.456;2022-11-20T00:38:43;5.33;;;3.30;;
18383;SDS011;9318;48.644;9.456;2022-11-20T00:41:11;7.37;;;3.90;;
18383;SDS011;9318;48.644;9.456;2022-11-20T00:43:40;3.87;;;3.43;;
18383;SDS011;9318;48.644;9.456;2022-11-20T00:46:09;4.63;;;3.20;;
18383;SDS011;9318;48.644;9.456;2022-11-20T00:48:39;5.13;;;3.30;;
18383;SDS011;9318;48.644;9.456;2022-11-20T00:51:07;5.50;;;3.20;;
18383;SDS011;9318;48.644;9.456;2022-11-20T00:53:35;4.63;;;3.60;;
18383;SDS011;9318;48.644;9.456;2022-11-20T00:56:02;3.77;;;3.00;;
18383;SDS011;9318;48.644;9.456;2022-11-20T00:58:32;4.67;;;3.30;;
18383;SDS011;9318;48.644;9.456;2022-11-20T01:01:01;6.33;;;3.40;;
18383;SDS011;9318;48.644;9.456;2022-11-20T01:03:30;5.07;;;3.20;;
18383;SDS011;9318;48.644;9.456;2022-11-20T01:06:03;5.17;;;3.43;;
18383;SDS011;9318;48.644;9.456;2022-11-20T01:08:33;5.60;;;3.37;;
18383;SDS011;9318;48.644;9.456;2022-11-20T01:11:02;4.50;;;3.10;;
18383;SDS011;9318;48.644;9.456;2022-11-20T01:13:31;4.73;;;3.00;;
18383;SDS011;9318;48.644;9.456;2022-11-20T01:16:05;6.40;;;3.27;;
18383;SDS011;9318;48.644;9.456;2022-11-20T01:18:33;4.77;;;3.10;;
18383;SDS011;9318;48.644;9.456;2022-11-20T01:21:03;3.87;;;3.00;;
18383;SDS011;9318;48.644;9.456;2022-11-20T01:23:33;7.07;;;3.07;;
18383;SDS011;9318;48.644;9.456;2022-11-20T01:26:01;4.93;;;3.17;;
18383;SDS011;9318;48.644;9.456;2022-11-20T01:28:29;4.63;;;3.30;;
18383;SDS011;9318;48.644;9.456;2022-11-20T01:30:57;4.03;;;3.03;;
18383;SDS011;9318;48.644;9.456;2022-11-20T01:33:24;5.27;;;3.07;;
18383;SDS011;9318;48.644;9.456;2022-11-20T01:35:52;7.73;;;3.30;;
18383;SDS011;9318;48.644;9.456;2022-11-20T01:38:20;4.90;;;3.03;;
18383;SDS011;9318;48.644;9.456;2022-11-20T01:40:53;3.73;;;3.17;;
18383;SDS011;9318;48.644;9.456;2022-11-20T01:43:21;4.27;;;3.30;;
18383;SDS011;9318;48.644;9.456;2022-11-20T01:48:44;4.97;;;3.50;;
18383;SDS011;9318;48.644;9.456;2022-11-20T01:51:20;5.07;;;3.50;;
18383;SDS011;9318;48.644;9.456;2022-11-20T01:53:54;5.10;;;3.27;;
18383;SDS011;9318;48.644;9.456;2022-11-20T01:56:26;9.30;;;3.80;;
18383;SDS011;9318;48.644;9.456;2022-11-20T01:58:55;6.00;;;3.80;;
18383;SDS011;9318;48.644;9.456;2022-11-20T02:01:26;6.57;;;3.80;;
18383;SDS011;9318;48.644;9.456;2022-11-20T02:03:53;5.13;;;3.50;;
18383;SDS011;9318;48.644;9.456;2022-11-20T02:06:22;5.37;;;3.60;;
18383;SDS011;9318;48.644;9.456;2022-11-20T02:08:52;4.40;;;3.53;;
18383;SDS011;9318;48.644;9.456;2022-11-20T02:11:21;5.00;;;3.30;;
18383;SDS011;9318;48.644;9.456;2022-11-20T02:13:48;6.03;;;3.60;;
18383;SDS011;9318;48.644;9.456;2022-11-20T02:16:16;7.03;;;3.50;;
18383;SDS011;9318;48.644;9.456;2022-11-20T02:18:47;8.03;;;3.70;;
18383;SDS011;9318;48.644;9.456;2022-11-20T02:21:19;5.20;;;3.57;;
18383;SDS011;9318;48.644;9.456;2022-11-20T02:24:07;6.07;;;3.60;;
18383;SDS011;9318;48.644;9.456;2022-11-20T02:26:41;4.87;;;3.50;;
18383;SDS011;9318;48.644;9.456;2022-11-20T02:29:12;5.03;;;3.53;;
18383;SDS011;9318;48.644;9.456;2022-11-20T02:31:42;5.47;;;3.60;;
18383;SDS011;9318;48.644;9.456;2022-11-20T02:34:10;4.57;;;3.60;;
18383;SDS011;9318;48.644;9.456;2022-11-20T02:36:38;6.20;;;3.77;;
18383;SDS011;9318;48.644;9.456;2022-11-20T02:39:10;10.13;;;3.97;;
18383;SDS011;9318;48.644;9.456;2022-11-20T02:41:41;8.40;;;4.30;;
18383;SDS011;9318;48.644;9.456;2022-11-20T02:44:09;6.30;;;3.90;;
18383;SDS011;9318;48.644;9.456;2022-11-20T02:46:36;5.87;;;3.20;;
18383;SDS011;9318;48.644;9.456;2022-11-20T02:49:04;9.23;;;3.90;;
18383;SDS011;9318;48.644;9.456;2022-11-20T02:51:31;8.93;;;3.73;;
18383;SDS011;9318;48.644;9.456;2022-11-20T02:53:59;7.87;;;3.87;;
18383;SDS011;9318;48.644;9.456;2022-11-20T02:56:28;5.73;;;3.60;;
18383;SDS011;9318;48.644;9.456;2022-11-20T02:58:55;6.97;;;3.80;;
18383;SDS011;9318;48.644;9.456;2022-11-20T03:01:22;10.87;;;4.20;;
18383;SDS011;9318;48.644;9.456;2022-11-20T03:03:50;5.57;;;3.67;;
18383;SDS011;9318;48.644;9.456;2022-11-20T03:06:19;5.67;;;3.70;;
18383;SDS011;9318;48.644;9.456;2022-11-20T03:08:47;5.07;;;3.50;;
18383;SDS011;9318;48.644;9.456;2022-11-20T03:11:14;6.03;;;3.50;;
18383;SDS011;9318;48.644;9.456;2022-11-20T03:13:43;5.30;;;3.60;;
18383;SDS011;9318;48.644;9.456;2022-11-20T03:16:11;5.97;;;3.33;;
18383;SDS011;9318;48.644;9.456;2022-11-20T03:18:39;5.97;;;3.47;;
18383;SDS011;9318;48.644;9.456;2022-11-20T03:21:07;6.00;;;3.67;;
18383;SDS011;9318;48.644;9.456;2022-11-20T03:23:35;4.60;;;3.43;;
18383;SDS011;9318;48.644;9.456;2022-11-20T03:26:07;4.93;;;3.33;;
18383;SDS011;9318;48.644;9.456;2022-11-20T03:28:39;6.33;;;3.37;;
18383;SDS011;9318;48.644;9.456;2022-11-20T03:31:09;4.40;;;3.37;;
18383;SDS011;9318;48.644;9.456;2022-11-20T03:33:38;5.70;;;3.47;;
18383;SDS011;9318;48.644;9.456;2022-11-20T03:36:06;4.53;;;3.43;;
18383;SDS011;9318;48.644;9.456;2022-11-20T03:38:36;6.17;;;3.30;;
18383;SDS011;9318;48.644;9.456;2022-11-20T03:41:04;4.97;;;3.40;;
18383;SDS011;9318;48.644;9.456;2022-11-20T03:43:32;5.07;;;3.20;;
18383;SDS011;9318;48.644;9.456;2022-11-20T03:46:00;6.37;;;3.60;;
18383;SDS011;9318;48.644;9.456;2022-11-20T03:48:29;6.57;;;3.53;;
18383;SDS011;9318;48.644;9.456;2022-11-20T03:51:06;7.47;;;3.77;;
18383;SDS011;9318;48.644;9.456;2022-11-20T03:53:34;5.60;;;3.60;;
18383;SDS011;9318;48.644;9.456;2022-11-20T03:56:01;5.93;;;3.80;;
18383;SDS011;9318;48.644;9.456;2022-11-20T03:58:29;7.00;;;3.73;;
18383;SDS011;9318;48.644;9.456;2022-11-20T04:00:56;6.40;;;3.80;;
18383;SDS011;9318;48.644;9.456;2022-11-20T04:03:23;5.10;;;3.33;;
18383;SDS011;9318;48.644;9.456;2022-11-20T04:05:53;7.10;;;3.47;;
18383;SDS011;9318;48.644;9.456;2022-11-20T04:08:20;5.47;;;3.33;;
18383;SDS011;9318;48.644;9.456;2022-11-20T04:10:47;5.13;;;3.50;;
18383;SDS011;9318;48.644;9.456;2022-11-20T04:13:14;6.07;;;3.70;;
18383;SDS011;9318;48.644;9.456;2022-11-20T04:15:41;5.57;;;3.43;;
18383;SDS011;9318;48.644;9.456;2022-11-20T04:18:09;6.30;;;3.40;;
18383;SDS011;9318;48.644;9.456;2022-11-20T04:20:36;7.27;;;3.67;;
18383;SDS011;9318;48.644;9.456;2022-11-20T04:23:04;4.70;;;3.10;;
18383;SDS011;9318;48.644;9.456;2022-11-20T04:25:32;4.63;;;3.10;;
18383;SDS011;9318;48.644;9.456;2022-11-20T04:27:59;3.97;;;3.00;;
18383;SDS011;9318;48.644;9.456;2022-11-20T04:30:26;3.93;;;3.23;;
18383;SDS011;9318;48.644;9.456;2022-11-20T04:32:53;6.70;;;3.13;;
18383;SDS011;9318;48.644;9.456;2022-11-20T04:35:21;5.80;;;3.07;;
18383;SDS011;9318;48.644;9.456;2022-11-20T04:37:50;4.77;;;3.00;;
18383;SDS011;9318;48.644;9.456;2022-11-20T04:40:19;7.03;;;2.90;;
18383;SDS011;9318;48.644;9.456;2022-11-20T04:42:47;3.40;;;2.77;;
18383;SDS011;9318;48.644;9.456;2022-11-20T04:45:14;3.20;;;2.90;;
18383;SDS011;9318;48.644;9.456;2022-11-20T04:47:41;3.57;;;2.87;;
18383;SDS011;9318;48.644;9.456;2022-11-20T04:50:08;4.70;;;2.90;;
18383;SDS011;9318;48.644;9.456;2022-11-20T04:52:36;2.97;;;2.60;;
18383;SDS011;9318;48.644;9.456;2022-11-20T04:55:03;2.90;;;2.60;;
18383;SDS011;9318;48.644;9.456;2022-11-20T04:57:32;4.13;;;2.70;;
18383;SDS011;9318;48.644;9.456;2022-11-20T04:59:59;3.63;;;2.73;;
18383;SDS011;9318;48.644;9.456;2022-11-20T05:02:26;3.43;;;2.60;;
18383;SDS011;9318;48.644;9.456;2022-11-20T05:04:54;5.57;;;2.90;;
18383;SDS011;9318;48.644;9.456;2022-11-20T05:07:21;2.70;;;2.50;;
18383;SDS011;9318;48.644;9.456;2022-11-20T05:09:48;5.07;;;2.70;;
18383;SDS011;9318;48.644;9.456;2022-11-20T05:12:15;2.53;;;2.30;;
18383;SDS011;9318;48.644;9.456;2022-11-20T05:14:44;3.00;;;2.60;;
18383;SDS011;9318;48.644;9.456;2022-11-20T05:17:11;4.17;;;2.50;;
18383;SDS011;9318;48.644;9.456;2022-11-20T05:19:38;2.90;;;2.60;;
18383;SDS011;9318;48.644;9.456;2022-11-20T05:22:05;4.10;;;2.80;;
18383;SDS011;9318;48.644;9.456;2022-11-20T05:24:32;3.37;;;2.43;;
18383;SDS011;9318;48.644;9.456;2022-11-20T05:26:59;3.43;;;2.60;;
18383;SDS011;9318;48.644;9.456;2022-11-20T05:29:26;3.47;;;2.63;;
18383;SDS011;9318;48.644;9.456;2022-11-20T05:31:55;3.53;;;2.37;;
18383;SDS011;9318;48.644;9.456;2022-11-20T05:34:22;3.00;;;2.70;;
18383;SDS011;9318;48.644;9.456;2022-11-20T05:36:49;4.07;;;2.33;;
18383;SDS011;9318;48.644;9.456;2022-11-20T05:39:16;3.57;;;2.40;;
18383;SDS011;9318;48.644;9.456;2022-11-20T05:41:43;2.70;;;2.50;;
18383;SDS011;9318;48.644;9.456;2022-11-20T05:44:10;2.70;;;2.50;;
18383;SDS011;9318;48.644;9.456;2022-11-20T05:46:38;3.07;;;2.50;;
18383;SDS011;9318;48.644;9.456;2022-11-20T05:49:06;3.67;;;2.60;;
18383;SDS011;9318;48.644;9.456;2022-11-20T05:51:34;3.93;;;2.63;;
18383;SDS011;9318;48.644;9.456;2022-11-20T05:54:01;4.10;;;2.80;;
18383;SDS011;9318;48.644;9.456;2022-11-20T05:56:28;4.70;;;2.70;;
18383;SDS011;9318;48.644;9.456;2022-11-20T05:58:55;2.97;;;2.40;;
18383;SDS011;9318;48.644;9.456;2022-11-20T06:01:23;3.37;;;2.70;;
18383;SDS011;9318;48.644;9.456;2022-11-20T06:03:52;3.40;;;2.70;;
18383;SDS011;9318;48.644;9.456;2022-11-20T06:06:21;3.10;;;2.80;;
18383;SDS011;9318;48.644;9.456;2022-11-20T06:08:50;3.73;;;2.87;;
18383;SDS011;9318;48.644;9.456;2022-11-20T06:11:17;3.47;;;2.70;;
18383;SDS011;9318;48.644;9.456;2022-11-20T06:13:44;2.60;;;2.40;;
18383;SDS011;9318;48.644;9.456;2022-11-20T06:16:13;4.97;;;2.50;;
18383;SDS011;9318;48.644;9.456;2022-11-20T06:18:42;4.90;;;2.80;;
18383;SDS011;9318;48.644;9.456;2022-11-20T06:21:10;2.70;;;2.50;;
18383;SDS011;9318;48.644;9.456;2022-11-20T06:23:40;4.57;;;2.60;;
18383;SDS011;9318;48.644;9.456;2022-11-20T06:26:08;4.20;;;2.50;;
18383;SDS011;9318;48.644;9.456;2022-11-20T06:28:37;4.50;;;2.60;;
18383;SDS011;9318;48.644;9.456;2022-11-20T06:31:05;3.83;;;2.50;;
18383;SDS011;9318;48.644;9.456;2022-11-20T06:33:33;3.10;;;2.43;;
18383;SDS011;9318;48.644;9.456;2022-11-20T06:36:00;3.10;;;2.67;;
18383;SDS011;9318;48.644;9.456;2022-11-20T06:38:28;3.63;;;2.63;;
18383;SDS011;9318;48.644;9.456;2022-11-20T06:40:57;4.90;;;2.50;;
18383;SDS011;9318;48.644;9.456;2022-11-20T06:43:24;3.40;;;2.50;;
18383;SDS011;9318;48.644;9.456;2022-11-20T06:45:52;3.83;;;2.60;;
18383;SDS011;9318;48.644;9.456;2022-11-20T06:48:19;2.63;;;2.43;;
18383;SDS011;9318;48.644;9.456;2022-11-20T06:50:46;3.93;;;2.83;;
18383;SDS011;9318;48.644;9.456;2022-11-20T06:53:13;5.23;;;2.70;;
18383;SDS011;9318;48.644;9.456;2022-11-20T06:55:41;4.77;;;2.60;;
18383;SDS011;9318;48.644;9.456;2022-11-20T06:58:11;3.07;;;2.60;;
18383;SDS011;9318;48.644;9.456;2022-11-20T07:00:38;5.73;;;2.77;;
18383;SDS011;9318;48.644;9.456;2022-11-20T07:03:05;3.33;;;2.70;;
18383;SDS011;9318;48.644;9.456;2022-11-20T07:05:34;4.80;;;2.60;;
18383;SDS011;9318;48.644;9.456;2022-11-20T07:08:02;3.30;;;2.80;;
18383;SDS011;9318;48.644;9.456;2022-11-20T07:10:29;4.93;;;2.80;;
18383;SDS011;9318;48.644;9.456;2022-11-20T07:12:56;3.10;;;2.40;;
18383;SDS011;9318;48.644;9.456;2022-11-20T07:15:25;3.50;;;2.90;;
18383;SDS011;9318;48.644;9.456;2022-11-20T07:17:53;4.67;;;3.00;;
18383;SDS011;9318;48.644;9.456;2022-11-20T07:20:20;5.40;;;2.70;;
18383;SDS011;9318;48.644;9.456;2022-11-20T07:22:52;3.97;;;2.70;;
18383;SDS011;9318;48.644;9.456;2022-11-20T07:25:20;4.20;;;2.60;;
18383;SDS011;9318;48.644;9.456;2022-11-20T07:27:48;2.83;;;2.60;;
18383;SDS011;9318;48.644;9.456;2022-11-20T07:30:15;4.93;;;2.87;;
18383;SDS011;9318;48.644;9.456;2022-11-20T07:32:44;4.23;;;2.90;;
18383;SDS011;9318;48.644;9.456;2022-11-20T07:35:12;5.00;;;2.40;;
18383;SDS011;9318;48.644;9.456;2022-11-20T07:37:40;3.30;;;2.50;;
18383;SDS011;9318;48.644;9.456;2022-11-20T07:40:07;6.13;;;2.70;;
18383;SDS011;9318;48.644;9.456;2022-11-20T07:42:35;3.33;;;2.30;;
18383;SDS011;9318;48.644;9.456;2022-11-20T07:45:02;3.10;;;2.43;;
18383;SDS011;9318;48.644;9.456;2022-11-20T07:47:34;3.13;;;2.53;;
18383;SDS011;9318;48.644;9.456;2022-11-20T07:50:03;2.53;;;2.30;;
18383;SDS011;9318;48.644;9.456;2022-11-20T07:52:31;4.80;;;2.50;;
18383;SDS011;9318;48.644;9.456;2022-11-20T07:54:58;3.20;;;2.50;;
18383;SDS011;9318;48.644;9.456;2022-11-20T07:57:26;2.67;;;2.20;;
18383;SDS011;9318;48.644;9.456;2022-11-20T07:59:53;2.47;;;2.27;;
18383;SDS011;9318;48.644;9.456;2022-11-20T08:02:20;2.50;;;2.30;;
18383;SDS011;9318;48.644;9.456;2022-11-20T08:04:47;2.90;;;2.00;;
18383;SDS011;9318;48.644;9.456;2022-11-20T08:07:15;2.80;;;2.17;;
18383;SDS011;9318;48.644;9.456;2022-11-20T08:09:42;2.50;;;2.20;;
18383;SDS011;9318;48.644;9.456;2022-11-20T08:12:10;3.47;;;2.10;;
18383;SDS011;9318;48.644;9.456;2022-11-20T08:15:02;2.53;;;2.17;;
18383;SDS011;9318;48.644;9.456;2022-11-20T08:17:29;4.23;;;2.30;;
18383;SDS011;9318;48.644;9.456;2022-11-20T08:19:56;4.87;;;2.40;;
18383;SDS011;9318;48.644;9.456;2022-11-20T08:22:25;2.40;;;2.20;;
18383;SDS011;9318;48.644;9.456;2022-11-20T08:24:52;6.80;;;3.67;;
18383;SDS011;9318;48.644;9.456;2022-11-20T08:27:19;4.10;;;2.60;;
18383;SDS011;9318;48.644;9.456;2022-11-20T08:29:46;2.30;;;2.10;;
18383;SDS011;9318;48.644;9.456;2022-11-20T08:32:13;3.07;;;2.20;;
18383;SDS011;9318;48.644;9.456;2022-11-20T08:34:40;2.43;;;2.23;;
18383;SDS011;9318;48.644;9.456;2022-11-20T08:37:07;2.40;;;2.10;;
18383;SDS011;9318;48.644;9.456;2022-11-20T08:39:36;3.40;;;2.13;;
18383;SDS011;9318;48.644;9.456;2022-11-20T08:42:06;2.83;;;2.10;;
18383;SDS011;9318;48.644;9.456;2022-11-20T08:44:33;2.63;;;2.23;;
18383;SDS011;9318;48.644;9.456;2022-11-20T08:47:01;2.30;;;2.10;;
18383;SDS011;9318;48.644;9.456;2022-11-20T08:49:28;2.40;;;2.10;;
18383;SDS011;9318;48.644;9.456;2022-11-20T08:51:56;4.60;;;2.40;;
18383;SDS011;9318;48.644;9.456;2022-11-20T08:54:23;2.83;;;2.00;;
18383;SDS011;9318;48.644;9.456;2022-11-20T08:56:52;2.27;;;2.07;;
18383;SDS011;9318;48.644;9.456;2022-11-20T08:59:19;2.70;;;2.10;;
18383;SDS011;9318;48.644;9.456;2022-11-20T09:01:46;2.67;;;2.40;;
18383;SDS011;9318;48.644;9.456;2022-11-20T09:04:13;3.83;;;2.40;;
18383;SDS011;9318;48.644;9.456;2022-11-20T09:06:40;2.63;;;2.20;;
18383;SDS011;9318;48.644;9.456;2022-11-20T09:09:08;2.33;;;2.13;;
18383;SDS011;9318;48.644;9.456;2022-11-20T09:11:35;3.03;;;2.30;;
18383;SDS011;9318;48.644;9.456;2022-11-20T09:14:03;3.20;;;2.47;;
18383;SDS011;9318;48.644;9.456;2022-11-20T09:16:30;3.87;;;2.30;;
18383;SDS011;9318;48.644;9.456;2022-11-20T09:18:57;3.20;;;2.50;;
18383;SDS011;9318;48.644;9.456;2022-11-20T09:21:25;2.33;;;2.13;;
18383;SDS011;9318;48.644;9.456;2022-11-20T09:23:52;3.33;;;2.40;;
18383;SDS011;9318;48.644;9.456;2022-11-20T09:26:19;4.97;;;2.50;;
18383;SDS011;9318;48.644;9.456;2022-11-20T09:28:46;2.63;;;2.30;;
18383;SDS011;9318;48.644;9.456;2022-11-20T09:31:17;4.53;;;2.40;;
18383;SDS011;9318;48.644;9.456;2022-11-20T09:33:48;6.37;;;3.10;;
18383;SDS011;9318;48.644;9.456;2022-11-20T09:36:16;6.90;;;3.43;;
18383;SDS011;9318;48.644;9.456;2022-11-20T09:38:43;5.53;;;2.90;;
18383;SDS011;9318;48.644;9.456;2022-11-20T09:41:16;3.57;;;2.40;;
18383;SDS011;9318;48.644;9.456;2022-11-20T09:43:57;2.83;;;2.23;;
18383;SDS011;9318;48.644;9.456;2022-11-20T09:46:34;2.30;;;2.10;;
18383;SDS011;9318;48.644;9.456;2022-11-20T09:49:15;2.10;;;1.90;;
18383;SDS011;9318;48.644;9.456;2022-11-20T09:51:52;2.70;;;2.43;;
18383;SDS011;9318;48.644;9.456;2022-11-20T09:54:26;3.13;;;2.10;;
18383;SDS011;9318;48.644;9.456;2022-11-20T09:56:58;2.27;;;2.07;;
18383;SDS011;9318;48.644;9.456;2022-11-20T09:59:32;2.57;;;2.23;;
18383;SDS011;9318;48.644;9.456;2022-11-20T10:02:08;2.53;;;2.20;;
18383;SDS011;9318;48.644;9.456;2022-11-20T10:04:43;2.20;;;2.00;;
18383;SDS011;9318;48.644;9.456;2022-11-20T10:07:15;2.67;;;2.30;;
18383;SDS011;9318;48.644;9.456;2022-11-20T10:09:49;2.70;;;2.00;;
18383;SDS011;9318;48.644;9.456;2022-11-20T10:12:19;2.80;;;2.10;;
18383;SDS011;9318;48.644;9.456;2022-11-20T10:15:02;2.30;;;2.00;;
18383;SDS011;9318;48.644;9.456;2022-11-20T10:17:53;4.70;;;2.10;;
18383;SDS011;9318;48.644;9.456;2022-11-20T10:20:30;3.53;;;2.20;;
18383;SDS011;9318;48.644;9.456;2022-11-20T10:23:14;3.30;;;2.20;;
18383;SDS011;9318;48.644;9.456;2022-11-20T10:25:59;2.37;;;2.17;;
18383;SDS011;9318;48.644;9.456;2022-11-20T10:31:17;2.50;;;2.30;;
18383;SDS011;9318;48.644;9.456;2022-11-20T10:33:56;2.20;;;2.00;;
18383;SDS011;9318;48.644;9.456;2022-11-20T10:36:26;3.60;;;2.40;;
18383;SDS011;9318;48.644;9.456;2022-11-20T10:38:58;2.23;;;2.03;;
18383;SDS011;9318;48.644;9.456;2022-11-20T10:41:28;2.20;;;2.00;;
18383;SDS011;9318;48.644;9.456;2022-11-20T10:44:02;2.20;;;2.00;;
18383;SDS011;9318;48.644;9.456;2022-11-20T10:46:34;2.20;;;2.00;;
18383;SDS011;9318;48.644;9.456;2022-11-20T10:49:11;2.67;;;2.20;;
18383;SDS011;9318;48.644;9.456;2022-11-20T10:51:44;2.33;;;2.00;;
18383;SDS011;9318;48.644;9.456;2022-11-20T10:54:27;2.77;;;2.40;;
18383;SDS011;9318;48.644;9.456;2022-11-20T10:57:04;5.00;;;3.30;;
18383;SDS011;9318;48.644;9.456;2022-11-20T10:59:47;7.30;;;3.70;;
18383;SDS011;9318;48.644;9.456;2022-11-20T11:02:24;7.97;;;4.33;;
18383;SDS011;9318;48.644;9.456;2022-11-20T11:05:00;10.27;;;6.23;;
18383;SDS011;9318;48.644;9.456;2022-11-20T11:07:37;3.13;;;2.30;;
18383;SDS011;9318;48.644;9.456;2022-11-20T11:10:12;2.40;;;2.17;;
18383;SDS011;9318;48.644;9.456;2022-11-20T11:12:43;3.53;;;2.60;;
18383;SDS011;9318;48.644;9.456;2022-11-20T11:15:12;4.23;;;2.10;;
18383;SDS011;9318;48.644;9.456;2022-11-20T11:17:51;3.83;;;2.20;;
18383;SDS011;9318;48.644;9.456;2022-11-20T11:20:21;3.20;;;2.30;;
18383;SDS011;9318;48.644;9.456;2022-11-20T11:22:50;3.53;;;2.30;;
18383;SDS011;9318;48.644;9.456;2022-11-20T11:25:19;2.50;;;2.30;;
18383;SDS011;9318;48.644;9.456;2022-11-20T11:27:56;3.77;;;2.40;;
18383;SDS011;9318;48.644;9.456;2022-11-20T11:30:25;3.90;;;2.30;;
18383;SDS011;9318;48.644;9.456;2022-11-20T11:33:05;2.50;;;2.30;;
18383;SDS011;9318;48.644;9.456;2022-11-20T11:35:38;3.07;;;2.40;;
18383;SDS011;9318;48.644;9.456;2022-11-20T11:38:12;3.40;;;2.40;;
18383;SDS011;9318;48.644;9.456;2022-11-20T11:40:43;3.10;;;2.00;;
18383;SDS011;9318;48.644;9.456;2022-11-20T11:43:17;2.73;;;2.40;;
18383;SDS011;9318;48.644;9.456;2022-11-20T11:46:05;3.23;;;2.20;;
18383;SDS011;9318;48.644;9.456;2022-11-20T11:48:55;2.97;;;2.20;;
18383;SDS011;9318;48.644;9.456;2022-11-20T11:51:29;5.03;;;2.77;;
18383;SDS011;9318;48.644;9.456;2022-11-20T11:54:13;5.13;;;2.50;;
18383;SDS011;9318;48.644;9.456;2022-11-20T11:56:44;8.93;;;2.70;;
18383;SDS011;9318;48.644;9.456;2022-11-20T11:59:12;9.30;;;3.43;;
18383;SDS011;9318;48.644;9.456;2022-11-20T12:01:51;5.97;;;2.70;;
18383;SDS011;9318;48.644;9.456;2022-11-20T12:04:23;8.37;;;2.70;;
18383;SDS011;9318;48.644;9.456;2022-11-20T12:07:08;6.27;;;2.80;;
18383;SDS011;9318;48.644;9.456;2022-11-20T12:09:39;9.10;;;3.10;;
18383;SDS011;9318;48.644;9.456;2022-11-20T12:12:13;5.50;;;2.80;;
18383;SDS011;9318;48.644;9.456;2022-11-20T12:14:47;4.30;;;2.70;;
18383;SDS011;9318;48.644;9.456;2022-11-20T12:17:17;3.63;;;2.43;;
18383;SDS011;9318;48.644;9.456;2022-11-20T12:19:45;4.33;;;2.50;;
18383;SDS011;9318;48.644;9.456;2022-11-20T12:22:17;3.17;;;2.40;;
18383;SDS011;9318;48.644;9.456;2022-11-20T12:24:55;2.90;;;2.27;;
18383;SDS011;9318;48.644;9.456;2022-11-20T12:30:27;2.93;;;2.17;;
18383;SDS011;9318;48.644;9.456;2022-11-20T12:32:58;3.10;;;2.40;;
18383;SDS011;9318;48.644;9.456;2022-11-20T12:35:44;2.80;;;2.30;;
18383;SDS011;9318;48.644;9.456;2022-11-20T12:38:41;3.60;;;2.30;;
18383;SDS011;9318;48.644;9.456;2022-11-20T12:41:25;2.50;;;2.00;;
18383;SDS011;9318;48.644;9.456;2022-11-20T12:44:28;5.77;;;2.53;;
18383;SDS011;9318;48.644;9.456;2022-11-20T12:47:28;3.87;;;2.40;;
18383;SDS011;9318;48.644;9.456;2022-11-20T12:50:06;7.37;;;2.47;;
18383;SDS011;9318;48.644;9.456;2022-11-20T12:52:42;2.47;;;2.10;;
18383;SDS011;9318;48.644;9.456;2022-11-20T12:55:23;3.30;;;2.40;;
18383;SDS011;9318;48.644;9.456;2022-11-20T12:58:00;4.33;;;2.20;;
18383;SDS011;9318;48.644;9.456;2022-11-20T13:00:37;4.10;;;2.50;;
18383;SDS011;9318;48.644;9.456;2022-11-20T13:03:18;4.27;;;2.43;;
18383;SDS011;9318;48.644;9.456;2022-11-20T13:06:02;4.27;;;2.20;;
18383;SDS011;9318;48.644;9.456;2022-11-20T13:08:38;3.63;;;2.30;;
18383;SDS011;9318;48.644;9.456;2022-11-20T13:11:09;5.37;;;2.40;;
18383;SDS011;9318;48.644;9.456;2022-11-20T13:13:45;4.10;;;2.43;;
18383;SDS011;9318;48.644;9.456;2022-11-20T13:16:27;4.93;;;2.30;;
18383;SDS011;9318;48.644;9.456;2022-11-20T13:19:01;3.13;;;2.27;;
18383;SDS011;9318;48.644;9.456;2022-11-20T13:21:35;2.30;;;2.10;;
18383;SDS011;9318;48.644;9.456;2022-11-20T13:24:04;2.90;;;2.30;;
18383;SDS011;9318;48.644;9.456;2022-11-20T13:26:33;3.80;;;2.37;;
18383;SDS011;9318;48.644;9.456;2022-11-20T13:29:02;2.83;;;2.50;;
18383;SDS011;9318;48.644;9.456;2022-11-20T13:31:35;3.40;;;2.20;;
18383;SDS011;9318;48.644;9.456;2022-11-20T13:34:05;4.00;;;2.30;;
18383;SDS011;9318;48.644;9.456;2022-11-20T13:36:33;3.77;;;2.40;;
18383;SDS011;9318;48.644;9.456;2022-11-20T13:39:01;4.97;;;2.57;;
18383;SDS011;9318;48.644;9.456;2022-11-20T13:41:29;4.23;;;2.50;;
18383;SDS011;9318;48.644;9.456;2022-11-20T13:44:05;2.70;;;2.13;;
18383;SDS011;9318;48.644;9.456;2022-11-20T13:46:40;3.67;;;2.40;;
18383;SDS011;9318;48.644;9.456;2022-11-20T13:49:10;2.40;;;2.20;;
18383;SDS011;9318;48.644;9.456;2022-11-20T13:51:44;2.57;;;2.23;;
18383;SDS011;9318;48.644;9.456;2022-11-20T13:54:36;5.37;;;2.50;;
18383;SDS011;9318;48.644;9.456;2022-11-20T14:00:17;2.73;;;2.30;;
18383;SDS011;9318;48.644;9.456;2022-11-20T14:02:48;2.53;;;2.20;;
18383;SDS011;9318;48.644;9.456;2022-11-20T14:05:26;2.20;;;2.00;;
18383;SDS011;9318;48.644;9.456;2022-11-20T14:07:54;2.07;;;1.80;;
18383;SDS011;9318;48.644;9.456;2022-11-20T14:10:23;3.17;;;2.20;;
18383;SDS011;9318;48.644;9.456;2022-11-20T14:12:52;2.17;;;1.97;;
18383;SDS011;9318;48.644;9.456;2022-11-20T14:15:28;1.90;;;1.67;;
18383;SDS011;9318;48.644;9.456;2022-11-20T14:17:57;6.40;;;2.23;;
18383;SDS011;9318;48.644;9.456;2022-11-20T14:20:25;3.10;;;2.33;;
18383;SDS011;9318;48.644;9.456;2022-11-20T14:22:56;2.40;;;2.20;;
18383;SDS011;9318;48.644;9.456;2022-11-20T14:25:24;3.83;;;2.47;;
18383;SDS011;9318;48.644;9.456;2022-11-20T14:27:53;3.37;;;2.20;;
18383;SDS011;9318;48.644;9.456;2022-11-20T14:30:22;3.73;;;2.13;;
18383;SDS011;9318;48.644;9.456;2022-11-20T14:32:52;3.50;;;2.33;;
18383;SDS011;9318;48.644;9.456;2022-11-20T14:35:24;2.40;;;2.20;;
18383;SDS011;9318;48.644;9.456;2022-11-20T14:37:52;4.50;;;2.43;;
18383;SDS011;9318;48.644;9.456;2022-11-20T14:40:25;3.30;;;2.10;;
18383;SDS011;9318;48.644;9.456;2022-11-20T14:42:54;4.57;;;2.20;;
18383;SDS011;9318;48.644;9.456;2022-11-20T14:45:22;3.70;;;2.50;;
18383;SDS011;9318;48.644;9.456;2022-11-20T14:47:53;3.90;;;2.17;;
18383;SDS011;9318;48.644;9.456;2022-11-20T14:50:25;3.63;;;2.37;;
18383;SDS011;9318;48.644;9.456;2022-11-20T14:52:53;4.13;;;2.73;;
18383;SDS011;9318;48.644;9.456;2022-11-20T14:55:25;4.83;;;3.00;;
18383;SDS011;9318;48.644;9.456;2022-11-20T14:57:57;6.30;;;4.00;;
18383;SDS011;9318;48.644;9.456;2022-11-20T15:00:26;7.27;;;4.53;;
18383;SDS011;9318;48.644;9.456;2022-11-20T15:02:55;5.37;;;3.43;;
18383;SDS011;9318;48.644;9.456;2022-11-20T15:05:23;6.97;;;3.07;;
18383;SDS011;9318;48.644;9.456;2022-11-20T15:07:52;7.43;;;3.20;;
18383;SDS011;9318;48.644;9.456;2022-11-20T15:10:32;6.97;;;3.40;;
18383;SDS011;9318;48.644;9.456;2022-11-20T15:13:00;6.73;;;3.50;;
18383;SDS011;9318;48.644;9.456;2022-11-20T15:15:30;4.40;;;2.80;;
18383;SDS011;9318;48.644;9.456;2022-11-20T15:18:03;5.67;;;2.70;;
18383;SDS011;9318;48.644;9.456;2022-11-20T15:20:31;5.40;;;2.57;;
18383;SDS011;9318;48.644;9.456;2022-11-20T15:22:59;5.50;;;3.03;;
18383;SDS011;9318;48.644;9.456;2022-11-20T15:25:27;6.97;;;3.50;;
18383;SDS011;9318;48.644;9.456;2022-11-20T15:27:55;7.93;;;3.60;;
18383;SDS011;9318;48.644;9.456;2022-11-20T15:30:23;7.83;;;3.50;;
18383;SDS011;9318;48.644;9.456;2022-11-20T15:32:50;6.07;;;3.13;;